Time;durP1;ratioP1;P1;durP2;ratioP2;P2;SDS_P1;SDS_P2;PMS_P1;PMS_P2;Temp;Humidity;BMP_temperature;BMP_pressure;BME280_temperature;BME280_humidity;BME280_pressure;Samples;Min_cycle;Max_cycle;Signal;HPM_P1;HPM_P2
2022/09/16 00:01:00;;;;;;;1.23;0.70;;;;;;;10.96;100.00;99754.72;6285358;28;20168;-93
2022/09/16 00:04:02;;;;;;;2.05;0.73;;;;;;;10.86;100.00;99753.94;6285592;28;20343;-93
2022/09/16 00:07:04;;;;;;;1.63;0.50;;;;;;;10.72;100.00;99752.59;6275862;28;20037;-93
2022/09/16 00:10:07;;;;;;;3.22;0.60;;;;;;;10.70;100.00;99748.53;6282123;28;20048;-94
2022/09/16 00:13:09;;;;;;;2.13;0.70;;;;;;;10.65;100.00;99755.91;6282416;28;20041;-93
2022/09/16 00:16:17;;;;;;;1.95;0.60;;;;;;;10.68;100.00;99755.63;6279967;28;20053;-93
2022/09/16 00:19:18;;;;;;;2.53;0.70;;;;;;;10.63;100.00;99755.22;6271890;28;20037;-93
2022/09/16 00:22:20;;;;;;;3.60;0.80;;;;;;;10.58;100.00;99755.63;6267874;28;20061;-93
2022/09/16 00:25:22;;;;;;;1.92;0.77;;;;;;;10.54;100.00;99764.66;6269432;28;20041;-92
2022/09/16 00:28:24;;;;;;;5.05;0.90;;;;;;;10.51;100.00;99763.16;6282952;28;20063;-93
2022/09/16 00:31:25;;;;;;;3.60;0.82;;;;;;;10.54;100.00;99765.47;6275222;28;20048;-93
2022/09/16 00:34:27;;;;;;;6.03;1.80;;;;;;;10.60;100.00;99764.09;6267238;28;20622;-94
2022/09/16 00:37:31;;;;;;;2.35;0.98;;;;;;;10.59;100.00;99762.47;6275166;28;20458;-93
2022/09/16 00:40:33;;;;;;;2.55;1.27;;;;;;;10.55;100.00;99756.75;6273787;28;20376;-92
2022/09/16 00:43:49;;;;;;;3.60;1.10;;;;;;;10.56;100.00;99758.38;6262968;28;20860;-93
2022/09/16 00:46:52;;;;;;;6.40;1.60;;;;;;;10.60;100.00;99763.28;6273606;28;20122;-93
2022/09/16 00:50:00;;;;;;;2.70;1.00;;;;;;;10.63;100.00;99752.63;6277240;28;20161;-93
2022/09/16 00:53:01;;;;;;;3.70;1.17;;;;;;;10.61;100.00;99752.78;6269691;28;20095;-94
2022/09/16 00:56:08;;;;;;;3.75;1.10;;;;;;;10.71;100.00;99753.56;6276245;28;20048;-93
2022/09/16 00:59:16;;;;;;;3.70;1.13;;;;;;;10.78;100.00;99753.81;6280365;28;20045;-93
2022/09/16 01:02:20;;;;;;;2.42;0.90;;;;;;;10.74;100.00;99742.94;6281691;28;20051;-93
2022/09/16 01:05:25;;;;;;;4.47;1.27;;;;;;;10.70;100.00;99753.72;6267281;28;20041;-93
2022/09/16 01:08:27;;;;;;;1.77;1.00;;;;;;;10.69;100.00;99741.75;6269376;28;20045;-94
2022/09/16 01:11:29;;;;;;;2.80;1.13;;;;;;;10.66;100.00;99736.84;6284387;28;20037;-94
2022/09/16 01:18:23;;;;;;;4.22;1.05;;;;;;;10.65;100.00;99740.38;6270532;28;20052;-94
2022/09/16 01:21:44;;;;;;;4.95;1.00;;;;;;;10.73;100.00;99750.84;6265605;28;20538;-93
2022/09/16 01:24:54;;;;;;;4.15;1.13;;;;;;;10.81;100.00;99753.56;6273181;28;20392;-94
2022/09/16 01:27:58;;;;;;;4.33;0.77;;;;;;;10.88;100.00;99757.22;6278921;28;20398;-92
2022/09/16 01:31:11;;;;;;;3.15;0.98;;;;;;;11.05;100.00;99760.78;6280531;28;20071;-93
2022/09/16 01:34:41;;;;;;;2.97;0.82;;;;;;;11.10;100.00;99756.00;6278955;28;20052;-93
2022/09/16 01:37:55;;;;;;;2.10;0.93;;;;;;;11.07;100.00;99752.91;6282128;28;20113;-93
2022/09/16 01:41:09;;;;;;;1.58;0.70;;;;;;;10.95;100.00;99754.84;6277423;28;20047;-92
2022/09/16 01:44:27;;;;;;;1.75;0.70;;;;;;;10.96;100.00;99751.31;6262254;28;20041;-92
2022/09/16 01:47:50;;;;;;;2.13;0.60;;;;;;;11.02;100.00;99758.50;6279466;28;20044;-92
2022/09/16 01:51:01;;;;;;;3.42;1.00;;;;;;;11.08;100.00;99757.09;6276357;28;20480;-92
2022/09/16 01:54:15;;;;;;;1.63;0.80;;;;;;;11.14;100.00;99749.59;6274980;28;20049;-93
2022/09/16 01:57:24;;;;;;;4.38;0.90;;;;;;;11.16;100.00;99747.66;6281007;28;20044;-93
2022/09/16 02:00:27;;;;;;;3.38;0.75;;;;;;;11.19;100.00;99759.50;6280469;28;20040;-93
2022/09/16 02:03:33;;;;;;;2.85;1.05;;;;;;;11.20;100.00;99756.78;6273910;28;20512;-93
2022/09/16 02:06:37;;;;;;;5.07;0.90;;;;;;;11.14;100.00;99754.75;6269821;28;20045;-91
2022/09/16 02:09:45;;;;;;;4.47;0.80;;;;;;;11.21;100.00;99758.41;6281445;28;20053;-92
2022/09/16 02:12:51;;;;;;;2.00;0.80;;;;;;;11.26;100.00;99750.22;6264569;28;20528;-92
2022/09/16 02:16:09;;;;;;;1.80;0.75;;;;;;;11.28;100.00;99748.28;6276896;28;20052;-92
2022/09/16 02:19:17;;;;;;;3.85;0.80;;;;;;;11.30;100.00;99761.91;6271472;28;20041;-92
2022/09/16 02:22:31;;;;;;;3.28;0.82;;;;;;;11.31;100.00;99762.75;6277421;28;20179;-91
2022/09/16 02:25:37;;;;;;;1.38;0.90;;;;;;;11.37;100.00;99754.38;6264343;28;20762;-92
2022/09/16 02:28:42;;;;;;;4.50;0.82;;;;;;;11.39;100.00;99744.69;6264215;28;20082;-93
2022/09/16 02:31:46;;;;;;;5.35;0.95;;;;;;;11.35;100.00;99744.16;6271999;28;20139;-91
2022/09/16 02:34:50;;;;;;;3.70;0.82;;;;;;;11.40;100.00;99739.38;6275385;28;20523;-92
2022/09/16 02:37:58;;;;;;;3.28;0.60;;;;;;;11.36;100.00;99738.00;6272148;28;20162;-92
2022/09/16 02:41:00;;;;;;;2.45;0.90;;;;;;;11.41;100.00;99743.56;6267358;28;20099;-92
2022/09/16 02:44:03;;;;;;;2.40;0.90;;;;;;;11.41;100.00;99733.22;6277605;28;20076;-92
2022/09/16 02:47:17;;;;;;;6.28;0.90;;;;;;;11.37;100.00;99739.63;6278854;28;20051;-92
2022/09/16 02:50:27;;;;;;;9.77;1.40;;;;;;;11.34;100.00;99742.53;6273596;28;20370;-93
2022/09/16 02:54:04;;;;;;;1.88;0.85;;;;;;;11.29;100.00;99739.56;6281528;28;20151;-95
2022/09/16 02:57:07;;;;;;;2.45;0.90;;;;;;;11.39;100.00;99742.09;6253817;28;20045;-92
2022/09/16 03:00:10;;;;;;;4.70;1.05;;;;;;;11.29;100.00;99739.56;6254851;28;20045;-92
2022/09/16 03:03:12;;;;;;;2.15;0.90;;;;;;;11.24;100.00;99735.78;6229888;28;20049;-92
2022/09/16 03:06:18;;;;;;;4.93;1.38;;;;;;;11.30;100.00;99746.34;6255705;28;20064;-91
2022/09/16 03:09:28;;;;;;;1.65;0.90;;;;;;;11.33;100.00;99746.09;6231655;28;20072;-91
2022/09/16 03:12:48;;;;;;;2.38;0.82;;;;;;;11.38;100.00;99738.69;6255417;28;20057;-91
2022/09/16 03:16:13;;;;;;;5.13;1.00;;;;;;;11.30;100.00;99746.34;6254796;28;20593;-91
2022/09/16 03:19:32;;;;;;;3.15;0.90;;;;;;;11.30;100.00;99743.75;6255101;28;20115;-90
2022/09/16 03:22:50;;;;;;;2.22;0.90;;;;;;;11.27;100.00;99741.47;6252137;28;20045;-91
2022/09/16 03:26:07;;;;;;;3.67;1.20;;;;;;;11.25;100.00;99748.56;6255687;28;20060;-91
2022/09/16 03:29:31;;;;;;;2.97;0.80;;;;;;;11.24;100.00;99741.75;6254975;28;20557;-91
2022/09/16 03:32:48;;;;;;;4.75;0.77;;;;;;;11.28;100.00;99750.88;6275959;28;20466;-91
2022/09/16 03:35:53;;;;;;;1.33;0.68;;;;;;;11.33;100.00;99748.69;6279427;28;20040;-92
2022/09/16 03:38:57;;;;;;;3.13;1.23;;;;;;;11.32;100.00;99747.03;6277028;28;20064;-90
2022/09/16 03:42:09;;;;;;;2.55;0.68;;;;;;;11.38;100.00;99740.47;6273476;28;20487;-91
2022/09/16 03:45:20;;;;;;;4.85;0.80;;;;;;;11.43;100.00;99741.66;6281834;28;20189;-91
2022/09/16 03:48:22;;;;;;;3.95;0.80;;;;;;;11.50;100.00;99741.06;6244775;28;20075;-91
2022/09/16 03:51:25;;;;;;;4.70;0.85;;;;;;;11.46;100.00;99731.97;6268509;28;20117;-91
2022/09/16 03:54:26;;;;;;;4.95;1.42;;;;;;;11.42;100.00;99729.66;6286396;28;20517;-91
2022/09/16 03:57:29;;;;;;;5.45;0.90;;;;;;;11.45;100.00;99738.09;6304167;28;20048;-92
2022/09/16 04:00:31;;;;;;;2.60;0.73;;;;;;;11.45;100.00;99733.72;6283330;28;20089;-90
2022/09/16 04:03:36;;;;;;;1.27;0.70;;;;;;;11.46;100.00;99734.56;6282019;28;20422;-91
2022/09/16 04:06:38;;;;;;;6.35;0.70;;;;;;;11.42;100.00;99727.06;6283988;28;20047;-91
2022/09/16 04:09:40;;;;;;;4.82;0.90;;;;;;;11.47;100.00;99721.44;6277410;28;20067;-91
2022/09/16 04:12:41;;;;;;;1.80;0.70;;;;;;;11.47;100.00;99728.41;6280182;28;20040;-92
2022/09/16 04:15:43;;;;;;;5.15;0.90;;;;;;;11.48;100.00;99712.72;6280405;28;20490;-90
2022/09/16 04:18:45;;;;;;;3.97;1.00;;;;;;;11.45;100.00;99732.91;6284867;28;20033;-90
2022/09/16 04:21:47;;;;;;;2.53;1.00;;;;;;;11.45;100.00;99717.34;6274285;28;20367;-90
2022/09/16 04:24:49;;;;;;;4.50;0.98;;;;;;;11.43;100.00;99715.75;6276107;28;20097;-90
2022/09/16 04:27:53;;;;;;;3.08;1.00;;;;;;;11.33;100.00;99722.75;6284366;28;20047;-91
2022/09/16 04:30:59;;;;;;;4.07;1.30;;;;;;;11.25;100.00;99714.88;6277326;28;20237;-91
2022/09/16 04:34:01;;;;;;;3.53;1.02;;;;;;;11.24;100.00;99715.84;6279491;28;20043;-90
2022/09/16 04:37:03;;;;;;;1.00;0.90;;;;;;;11.33;100.00;99709.81;6274489;28;20079;-91
2022/09/16 04:40:06;;;;;;;1.13;0.80;;;;;;;11.28;100.00;99712.03;6286698;28;20167;-91
2022/09/16 04:43:08;;;;;;;2.25;1.10;;;;;;;11.25;100.00;99714.88;6285125;28;20040;-90
2022/09/16 04:46:10;;;;;;;5.68;1.30;;;;;;;11.21;100.00;99709.19;6286181;28;20045;-90
2022/09/16 04:49:12;;;;;;;2.08;1.00;;;;;;;11.19;100.00;99720.66;6270037;28;20037;-91
2022/09/16 04:52:14;;;;;;;3.13;0.88;;;;;;;11.33;100.00;99719.34;6282923;28;20860;-91
2022/09/16 04:55:21;;;;;;;4.50;1.10;;;;;;;11.27;100.00;99720.75;6267461;28;20045;-91
2022/09/16 04:58:23;;;;;;;3.25;1.20;;;;;;;11.36;100.00;99714.69;6278396;28;20041;-90
2022/09/16 05:01:37;;;;;;;4.30;0.95;;;;;;;11.34;100.00;99713.22;6277173;28;20561;-90
2022/09/16 05:04:39;;;;;;;4.47;1.35;;;;;;;11.33;100.00;99719.34;6275475;28;20044;-90
2022/09/16 05:07:41;;;;;;;2.85;1.20;;;;;;;11.37;100.00;99711.13;6277088;28;20102;-90
2022/09/16 05:10:43;;;;;;;3.70;1.30;;;;;;;11.38;100.00;99717.97;6279995;28;20036;-90
2022/09/16 05:13:45;;;;;;;3.80;1.50;;;;;;;11.42;100.00;99718.47;6284267;28;20452;-90
2022/09/16 05:16:47;;;;;;;5.97;1.73;;;;;;;11.44;100.00;99711.38;6277364;28;20032;-91
2022/09/16 05:19:48;;;;;;;3.78;1.77;;;;;;;11.37;100.00;99718.91;6271074;28;20553;-90
2022/09/16 05:22:50;;;;;;;3.75;1.50;;;;;;;11.36;100.00;99719.88;6268818;28;20235;-90
2022/09/16 05:25:54;;;;;;;2.28;1.02;;;;;;;11.41;100.00;99712.47;6276620;28;20552;-91
2022/09/16 05:28:59;;;;;;;2.00;1.38;;;;;;;11.37;100.00;99723.28;6280480;28;20036;-91
2022/09/16 05:32:01;;;;;;;4.32;1.17;;;;;;;11.24;100.00;99704.69;6270534;28;20559;-90
2022/09/16 05:35:03;;;;;;;2.28;1.60;;;;;;;11.26;100.00;99731.28;6272063;28;20090;-90
2022/09/16 05:38:04;;;;;;;2.08;1.13;;;;;;;11.22;100.00;99725.53;6286413;28;20430;-90
2022/09/16 05:41:07;;;;;;;5.60;1.60;;;;;;;11.33;100.00;99730.53;6269691;28;20041;-92
2022/09/16 05:44:09;;;;;;;2.17;1.02;;;;;;;11.47;100.00;99728.41;6266848;28;20703;-90
2022/09/16 05:47:10;;;;;;;2.15;1.08;;;;;;;11.48;100.00;99722.25;6279851;28;20052;-90
2022/09/16 05:50:12;;;;;;;3.03;1.50;;;;;;;11.57;100.00;99731.72;6279354;28;20217;-90
2022/09/16 05:53:14;;;;;;;3.20;1.10;;;;;;;11.59;100.00;99730.63;6280049;28;20044;-90
2022/09/16 05:56:18;;;;;;;4.07;1.23;;;;;;;11.51;100.00;99727.16;6273753;28;20047;-91
2022/09/16 05:59:22;;;;;;;1.52;0.95;;;;;;;11.49;100.00;99740.25;6279087;28;20060;-90
2022/09/16 06:02:24;;;;;;;2.85;1.05;;;;;;;11.57;100.00;99744.69;6279786;28;20052;-90
2022/09/16 06:05:25;;;;;;;4.28;1.10;;;;;;;11.60;100.00;99737.47;6276040;28;20103;-90
2022/09/16 06:08:29;;;;;;;1.92;1.17;;;;;;;11.57;100.00;99747.28;6273658;28;20047;-91
2022/09/16 06:11:34;;;;;;;2.30;1.30;;;;;;;11.54;100.00;99742.41;6276270;28;20052;-90
2022/09/16 06:14:36;;;;;;;2.88;1.33;;;;;;;11.58;100.00;99726.41;6262418;28;20044;-90
2022/09/16 06:17:38;;;;;;;3.50;1.25;;;;;;;11.80;100.00;99732.94;6262969;28;20043;-91
2022/09/16 06:20:39;;;;;;;1.92;0.88;;;;;;;11.97;100.00;99720.13;6264247;28;20067;-90
2022/09/16 06:23:41;;;;;;;3.08;0.93;;;;;;;12.09;100.00;99726.72;6279011;28;20135;-94
2022/09/16 06:26:44;;;;;;;3.08;1.00;;;;;;;12.07;100.00;99715.66;6271902;28;20033;-90
2022/09/16 06:29:46;;;;;;;2.63;0.80;;;;;;;12.10;100.00;99732.72;6283388;28;20449;-90
2022/09/16 06:32:47;;;;;;;3.25;1.00;;;;;;;12.16;100.00;99727.75;6282882;28;20039;-91
2022/09/16 06:35:50;;;;;;;3.00;0.82;;;;;;;12.26;100.00;99725.88;6265190;28;20071;-90
2022/09/16 06:38:52;;;;;;;1.20;0.70;;;;;;;12.37;100.00;99740.38;6280429;28;20485;-90
2022/09/16 06:41:54;;;;;;;2.28;0.60;;;;;;;12.36;100.00;99722.38;6271209;28;20178;-90
2022/09/16 06:45:05;;;;;;;1.40;0.73;;;;;;;12.31;100.00;99716.81;6283633;28;20048;-90
2022/09/16 06:48:06;;;;;;;4.43;0.85;;;;;;;12.31;100.00;99724.59;6271560;28;20056;-90
2022/09/16 06:51:16;;;;;;;1.15;0.70;;;;;;;12.30;100.00;99718.59;6275885;28;20033;-90
2022/09/16 06:54:18;;;;;;;3.45;0.82;;;;;;;12.18;100.00;99723.22;6280511;28;20040;-90
2022/09/16 06:57:22;;;;;;;4.22;0.85;;;;;;;11.99;100.00;99733.75;6268246;28;20355;-90
2022/09/16 07:00:24;;;;;;;2.65;0.93;;;;;;;11.90;100.00;99734.66;6277858;28;20044;-91
2022/09/16 07:03:25;;;;;;;2.63;0.80;;;;;;;11.77;100.00;99729.81;6281094;28;20068;-90
2022/09/16 07:06:28;;;;;;;2.83;0.52;;;;;;;11.71;100.00;99728.63;6279613;28;20081;-91
2022/09/16 07:09:50;;;;;;;2.38;0.85;;;;;;;11.73;100.00;99718.94;6269921;28;20966;-90
2022/09/16 07:12:52;;;;;;;2.88;0.80;;;;;;;11.71;100.00;99728.63;6283643;28;20101;-90
2022/09/16 07:15:53;;;;;;;2.38;0.70;;;;;;;11.79;100.00;99725.31;6282945;28;20545;-90
2022/09/16 07:19:13;;;;;;;4.17;0.80;;;;;;;11.90;100.00;99729.47;6285009;28;20041;-89
2022/09/16 07:22:15;;;;;;;2.60;0.80;;;;;;;11.94;100.00;99723.03;6281874;28;20496;-91
2022/09/16 07:25:17;;;;;;;3.22;0.80;;;;;;;11.96;100.00;99727.09;6283445;28;20502;-91
2022/09/16 07:28:19;;;;;;;3.45;0.60;;;;;;;12.00;100.00;99725.00;6285924;28;20041;-91
2022/09/16 07:31:24;;;;;;;1.65;0.70;;;;;;;12.04;100.00;99729.75;6278992;28;20383;-90
2022/09/16 07:34:26;;;;;;;4.00;0.82;;;;;;;12.05;100.00;99726.22;6279768;28;20045;-91
2022/09/16 07:37:27;;;;;;;4.53;0.82;;;;;;;12.11;100.00;99737.75;6285424;28;20649;-90
2022/09/16 07:40:29;;;;;;;3.15;1.10;;;;;;;12.11;100.00;99740.34;6283611;28;20048;-90
2022/09/16 07:43:31;;;;;;;1.50;0.80;;;;;;;12.17;100.00;99728.53;6284984;28;20415;-90
2022/09/16 07:46:35;;;;;;;4.80;0.90;;;;;;;12.21;100.00;99729.88;6279220;28;20762;-90
2022/09/16 07:49:36;;;;;;;1.70;0.70;;;;;;;12.33;100.00;99733.88;6273340;28;20117;-91
2022/09/16 07:52:38;;;;;;;3.60;0.90;;;;;;;12.37;100.00;99740.38;6288774;28;20033;-92
2022/09/16 07:55:40;;;;;;;2.97;0.70;;;;;;;12.39;100.00;99730.66;6288856;28;20130;-91
2022/09/16 07:58:43;;;;;;;2.75;0.65;;;;;;;12.42;100.00;99745.09;6285572;28;20445;-90
2022/09/16 08:01:49;;;;;;;2.80;0.68;;;;;;;12.50;100.00;99738.19;6290611;28;20045;-90
2022/09/16 08:04:51;;;;;;;5.65;1.00;;;;;;;12.61;100.00;99734.50;6274168;28;20402;-90
2022/09/16 08:07:53;;;;;;;3.13;0.75;;;;;;;12.76;100.00;99749.53;6274906;28;20037;-90
2022/09/16 08:10:55;;;;;;;3.42;0.90;;;;;;;12.90;100.00;99734.19;6280825;28;20047;-90
2022/09/16 08:13:58;;;;;;;6.18;0.90;;;;;;;13.00;100.00;99734.06;6282103;28;20089;-90
2022/09/16 08:17:00;;;;;;;2.47;0.80;;;;;;;13.08;100.00;99733.28;6280376;28;20529;-90
2022/09/16 08:20:05;;;;;;;4.88;1.05;;;;;;;13.12;98.68;99740.59;6280638;28;20072;-90
2022/09/16 08:23:06;;;;;;;5.43;1.00;;;;;;;13.14;97.87;99743.03;6270482;28;20514;-90
2022/09/16 08:26:09;;;;;;;3.10;0.93;;;;;;;13.17;96.29;99750.53;6285456;28;20053;-92
2022/09/16 08:29:11;;;;;;;4.35;1.00;;;;;;;13.18;97.08;99743.53;6274149;28;20114;-90
2022/09/16 08:32:13;;;;;;;4.90;1.20;;;;;;;13.13;96.73;99755.22;6281695;28;20043;-91
2022/09/16 08:35:15;;;;;;;5.68;0.90;;;;;;;13.12;95.56;99747.59;6266868;28;20521;-91
2022/09/16 08:38:16;;;;;;;4.70;0.75;;;;;;;13.28;94.65;99731.25;6287415;28;20050;-91
2022/09/16 08:41:23;;;;;;;2.78;1.00;;;;;;;13.28;94.14;99728.66;6287135;28;20544;-90
2022/09/16 08:44:30;;;;;;;3.40;0.63;;;;;;;13.48;93.41;99739.59;6280653;28;20052;-92
2022/09/16 08:48:21;;;;;;;6.75;0.82;;;;;;;13.65;90.41;99751.66;6277588;28;20045;-89
2022/09/16 08:51:29;;;;;;;4.50;0.80;;;;;;;13.73;89.86;99736.06;6257434;28;20194;-91
2022/09/16 08:54:37;;;;;;;4.65;0.90;;;;;;;13.83;89.28;99759.31;6258891;28;20446;-91
2022/09/16 08:58:01;;;;;;;2.95;0.80;;;;;;;14.42;87.15;99752.16;6228643;28;20137;-92
2022/09/16 09:01:15;;;;;;;3.58;0.88;;;;;;;14.62;85.43;99750.03;6233677;28;20555;-92
2022/09/16 09:04:17;;;;;;;3.72;0.98;;;;;;;14.49;84.08;99749.69;6243693;28;20043;-91
2022/09/16 09:07:38;;;;;;;7.85;0.90;;;;;;;14.43;84.68;99750.34;6254338;28;20128;-90
2022/09/16 09:11:00;;;;;;;3.80;0.80;;;;;;;14.72;84.32;99752.44;6257559;28;20091;-90
2022/09/16 09:14:20;;;;;;;4.80;0.95;;;;;;;14.93;82.42;99751.06;6258053;28;20465;-91
2022/09/16 09:17:46;;;;;;;9.02;1.05;;;;;;;14.90;82.42;99736.59;6257419;28;20140;-89
2022/09/16 09:21:26;;;;;;;3.92;0.77;;;;;;;14.56;80.82;99752.50;6257478;28;20373;-91
2022/09/16 09:25:06;;;;;;;3.00;0.77;;;;;;;14.44;81.48;99750.19;6259244;28;20060;-90
2022/09/16 09:28:10;;;;;;;3.23;0.80;;;;;;;14.65;79.39;99733.25;6216558;28;20131;-90
2022/09/16 09:31:40;;;;;;;35.35;3.47;;;;;;;14.97;78.60;99736.72;6232847;28;20063;-91
2022/09/16 09:35:20;;;;;;;2.78;1.20;;;;;;;15.30;75.54;99753.03;6224506;28;20052;-90
2022/09/16 09:38:37;;;;;;;2.60;0.67;;;;;;;15.11;75.07;99733.41;6233951;28;20049;-90
2022/09/16 09:41:44;;;;;;;5.38;1.02;;;;;;;15.06;76.77;99746.94;6231964;28;20416;-91
2022/09/16 09:44:58;;;;;;;3.67;0.95;;;;;;;14.78;75.73;99741.38;6232850;28;20057;-92
2022/09/16 09:48:18;;;;;;;4.00;0.77;;;;;;;14.49;77.01;99743.69;6232734;28;20060;-92
2022/09/16 09:51:27;;;;;;;5.03;0.80;;;;;;;14.31;78.37;99739.47;6232703;28;20332;-90
2022/09/16 09:54:31;;;;;;;6.25;0.90;;;;;;;14.54;76.62;99737.03;6229569;28;20049;-91
2022/09/16 09:57:40;;;;;;;6.13;1.20;;;;;;;14.86;74.64;99719.69;6215896;28;20080;-89
2022/09/16 10:00:42;;;;;;;4.43;1.00;;;;;;;15.37;72.71;99716.66;6214557;28;20503;-91
2022/09/16 10:03:46;;;;;;;6.43;0.90;;;;;;;15.79;71.08;99721.44;6247320;28;20056;-91
2022/09/16 10:06:50;;;;;;;3.72;0.85;;;;;;;15.94;70.72;99735.34;6282637;28;20545;-90
2022/09/16 10:10:13;;;;;;;7.15;1.00;;;;;;;15.92;70.72;99713.84;6277686;28;20039;-90
2022/09/16 10:13:16;;;;;;;6.53;0.82;;;;;;;15.84;71.29;99726.94;6271821;28;20378;-90
2022/09/16 10:16:20;;;;;;;4.93;0.65;;;;;;;15.70;70.96;99712.88;6275780;28;20114;-90
2022/09/16 10:19:25;;;;;;;5.82;0.93;;;;;;;15.88;72.42;99709.97;6271599;28;20122;-91
2022/09/16 10:22:30;;;;;;;2.97;0.80;;;;;;;15.90;70.25;99726.28;6275401;28;20044;-90
2022/09/16 10:25:32;;;;;;;2.42;0.60;;;;;;;16.00;71.02;99702.53;6272024;28;20528;-91
2022/09/16 10:28:35;;;;;;;3.95;0.73;;;;;;;16.29;65.90;99722.66;6279141;28;20174;-90
2022/09/16 10:31:39;;;;;;;7.65;0.80;;;;;;;16.58;65.63;99718.44;6271576;28;20079;-90
2022/09/16 10:34:41;;;;;;;4.65;0.77;;;;;;;16.26;64.17;99709.94;6274090;28;20072;-90
2022/09/16 10:37:53;;;;;;;3.13;0.68;;;;;;;15.93;64.93;99705.03;6278776;28;20142;-90
2022/09/16 10:41:14;;;;;;;4.57;0.90;;;;;;;16.28;64.75;99723.66;6282147;28;20087;-91
2022/09/16 10:44:30;;;;;;;4.03;1.15;;;;;;;16.17;63.76;99715.44;6296073;28;20332;-90
2022/09/16 10:47:34;;;;;;;3.20;0.80;;;;;;;15.66;64.66;99702.94;6275098;28;20045;-90
2022/09/16 10:50:36;;;;;;;4.22;0.75;;;;;;;15.42;67.52;99706.50;6263615;28;20043;-89
2022/09/16 10:53:43;;;;;;;7.90;0.90;;;;;;;15.77;65.19;99704.34;6278410;28;20040;-90
2022/09/16 10:56:49;;;;;;;6.35;0.98;;;;;;;16.17;63.06;99690.13;6274246;28;20040;-91
2022/09/16 11:00:09;;;;;;;3.83;0.80;;;;;;;16.08;65.04;99683.38;6274764;28;20525;-89
2022/09/16 11:03:49;;;;;;;6.30;0.98;;;;;;;16.28;63.40;99694.91;6273722;28;20036;-90
2022/09/16 11:07:05;;;;;;;4.43;0.80;;;;;;;16.38;61.07;99683.41;6281666;28;20411;-90
2022/09/16 11:10:35;;;;;;;6.20;1.63;;;;;;;16.08;64.58;99694.63;6281073;28;20045;-89
2022/09/16 11:13:56;;;;;;;3.47;0.77;;;;;;;16.02;64.77;99674.44;6279223;28;20041;-89
2022/09/16 11:17:35;;;;;;;4.32;0.75;;;;;;;16.27;61.09;99697.69;6283006;28;20355;-90
2022/09/16 11:21:08;;;;;;;2.67;0.70;;;;;;;15.28;84.74;99698.47;6196606;28;20045;-95
2022/09/16 11:24:27;;;;;;;4.40;0.90;;;;;;;13.98;90.08;99681.44;6212474;28;20049;-92
2022/09/16 11:27:44;;;;;;;4.63;0.70;;;;;;;13.22;96.56;99683.31;6193649;28;20049;-94
2022/09/16 11:30:58;;;;;;;2.70;1.25;;;;;;;13.41;96.88;99671.81;6208631;28;20057;-94
2022/09/16 11:34:35;;;;;;;7.45;1.45;;;;;;;13.76;92.50;99667.28;6208415;28;20440;-94
2022/09/16 11:37:53;;;;;;;5.85;0.73;;;;;;;14.17;87.49;99677.66;6182339;28;20412;-93
2022/09/16 11:41:31;;;;;;;5.35;0.90;;;;;;;15.03;76.63;99665.66;6184320;28;20727;-90
2022/09/16 11:44:44;;;;;;;4.65;0.70;;;;;;;15.69;70.51;99674.72;6135065;29;20055;-91
2022/09/16 11:48:23;;;;;;;6.13;1.00;;;;;;;15.85;70.68;99668.56;6136182;29;20138;-92
2022/09/16 11:51:40;;;;;;;4.97;0.68;;;;;;;15.38;73.52;99669.56;6135995;29;20121;-92
2022/09/16 11:55:19;;;;;;;3.22;0.82;;;;;;;15.16;72.66;99693.81;6116884;29;20090;-89
2022/09/16 11:58:47;;;;;;;2.15;0.70;;;;;;;15.85;69.32;99686.00;6158025;28;20050;-92
2022/09/16 12:01:55;;;;;;;4.88;1.10;;;;;;;16.01;69.03;99680.66;6160102;28;20555;-91
2022/09/16 12:05:19;;;;;;;2.63;0.75;;;;;;;15.74;69.98;99674.19;6159553;28;20062;-89
2022/09/16 12:08:27;;;;;;;3.78;0.60;;;;;;;15.64;72.36;99671.00;6174373;28;20053;-93
2022/09/16 12:11:41;;;;;;;2.25;0.60;;;;;;;15.74;70.60;99670.78;6154736;28;20125;-91
2022/09/16 12:15:14;;;;;;;2.35;0.68;;;;;;;15.78;70.37;99654.59;6198675;28;20052;-90
2022/09/16 12:18:31;;;;;;;5.78;1.27;;;;;;;16.03;70.03;99649.97;6202716;28;20217;-92
2022/09/16 12:22:05;;;;;;;3.97;0.85;;;;;;;16.21;69.56;99646.19;6279168;28;20076;-91
2022/09/16 12:25:37;;;;;;;6.93;1.55;;;;;;;16.27;66.26;99640.25;6282897;28;20055;-91
2022/09/16 12:29:34;;;;;;;4.07;0.90;;;;;;;16.44;65.03;99643.50;6267501;28;20550;-91
2022/09/16 12:33:16;;;;;;;4.57;0.90;;;;;;;17.07;64.29;99633.41;6183283;28;20221;-92
2022/09/16 12:36:24;;;;;;;4.68;1.27;;;;;;;17.86;58.60;99635.94;6182579;28;20750;-90
2022/09/16 12:39:27;;;;;;;4.28;0.88;;;;;;;18.01;59.10;99620.13;6181357;28;20140;-90
2022/09/16 12:43:06;;;;;;;5.15;0.75;;;;;;;18.24;54.04;99651.31;6183090;28;20529;-90
2022/09/16 12:46:44;;;;;;;3.50;0.82;;;;;;;18.29;52.29;99656.78;6183480;28;20058;-90
2022/09/16 12:50:04;;;;;;;4.03;0.80;;;;;;;18.44;51.57;99636.50;6184830;28;20054;-91
2022/09/16 12:53:45;;;;;;;3.05;0.88;;;;;;;18.70;51.19;99643.66;6184127;28;20345;-94
2022/09/16 12:57:05;;;;;;;4.03;1.00;;;;;;;18.66;51.12;99633.78;6167077;28;20116;-93
2022/09/16 13:00:14;;;;;;;6.60;1.13;;;;;;;17.94;54.70;99679.53;6184611;28;20068;-91
2022/09/16 13:03:25;;;;;;;7.50;1.30;;;;;;;16.65;62.90;99674.13;6165718;28;20666;-92
2022/09/16 13:06:34;;;;;;;9.73;1.20;;;;;;;15.19;76.83;99685.63;6220962;28;20055;-95
2022/09/16 13:09:39;;;;;;;4.03;0.75;;;;;;;13.59;97.04;99689.91;6270930;28;20205;-94
2022/09/16 13:12:48;;;;;;;4.65;0.80;;;;;;;12.61;100.00;99692.97;6283857;28;20202;-95
2022/09/16 13:15:58;;;;;;;7.25;0.90;;;;;;;12.02;100.00;99699.75;6296653;28;20529;-95
2022/09/16 13:19:20;;;;;;;4.72;1.00;;;;;;;11.72;100.00;99690.56;6286926;28;20051;-95
2022/09/16 13:22:29;;;;;;;6.63;1.23;;;;;;;11.66;100.00;99684.19;6273305;28;20060;-91
2022/09/16 13:25:44;;;;;;;3.70;0.80;;;;;;;11.89;100.00;99666.41;6266411;28;20414;-91
2022/09/16 13:28:47;;;;;;;6.38;1.13;;;;;;;12.04;100.00;99661.50;6280678;28;20664;-95
2022/09/16 13:31:50;;;;;;;6.85;1.02;;;;;;;12.39;100.00;99657.16;6271703;28;20033;-95
2022/09/16 13:35:24;;;;;;;5.30;0.93;;;;;;;12.78;100.00;99657.50;6268155;28;20037;-91
2022/09/16 13:38:37;;;;;;;5.78;0.85;;;;;;;12.97;100.00;99659.03;6281728;28;20048;-93
2022/09/16 13:41:46;;;;;;;5.35;0.73;;;;;;;13.51;100.00;99666.47;6281839;28;20044;-95
2022/09/16 13:44:48;;;;;;;5.47;1.13;;;;;;;13.58;100.00;99672.66;6275778;28;20383;-91
2022/09/16 13:47:51;;;;;;;3.65;1.10;;;;;;;13.45;100.00;99688.72;6273817;28;20098;-95
2022/09/16 13:50:58;;;;;;;3.17;0.70;;;;;;;13.04;100.00;99677.38;6281237;28;20036;-96
2022/09/16 13:54:03;;;;;;;2.17;0.60;;;;;;;12.51;100.00;99661.13;6279823;28;20151;-96
2022/09/16 13:57:24;;;;;;;3.03;0.55;;;;;;;12.34;100.00;99651.63;6280894;28;20040;-96
2022/09/16 14:00:44;;;;;;;3.20;0.70;;;;;;;12.33;100.00;99643.03;6283220;28;20052;-94
2022/09/16 14:04:14;;;;;;;2.13;0.70;;;;;;;13.12;99.51;99641.88;6282999;28;20041;-93
2022/09/16 14:07:39;;;;;;;4.73;1.17;;;;;;;13.81;94.38;99626.00;6281310;28;20566;-95
2022/09/16 14:10:49;;;;;;;1.60;0.68;;;;;;;14.35;92.29;99621.00;6270606;28;20049;-94
2022/09/16 14:14:01;;;;;;;2.28;0.50;;;;;;;14.64;97.16;99622.22;6280399;28;20114;-95
2022/09/16 14:17:26;;;;;;;1.65;0.47;;;;;;;15.19;93.81;99631.69;6274697;28;20052;-96
2022/09/16 14:20:32;;;;;;;1.45;0.40;;;;;;;15.67;87.84;99632.28;6267160;28;20430;-94
2022/09/16 14:23:33;;;;;;;2.45;0.60;;;;;;;15.99;83.53;99619.16;6275588;28;20052;-94
2022/09/16 14:26:52;;;;;;;1.60;0.70;;;;;;;15.98;84.50;99625.38;6271476;28;20399;-94
2022/09/16 14:29:59;;;;;;;2.33;0.60;;;;;;;15.47;84.60;99629.38;6267611;28;20485;-92
2022/09/16 14:33:02;;;;;;;4.13;0.65;;;;;;;15.02;87.24;99627.56;6261667;28;20044;-93
2022/09/16 14:36:12;;;;;;;2.22;0.80;;;;;;;14.67;86.27;99619.28;6273760;28;20049;-92
2022/09/16 14:39:17;;;;;;;4.07;0.63;;;;;;;14.48;88.78;99619.66;6275530;28;20045;-94
2022/09/16 14:42:22;;;;;;;1.88;0.60;;;;;;;14.40;90.16;99613.50;6269828;28;20037;-93
2022/09/16 14:45:24;;;;;;;3.17;0.77;;;;;;;14.35;90.16;99607.97;6290643;28;20615;-93
2022/09/16 14:48:33;;;;;;;1.25;0.50;;;;;;;14.48;87.93;99596.22;6287483;28;20063;-93
2022/09/16 14:51:36;;;;;;;1.23;0.40;;;;;;;14.80;87.26;99597.88;6295990;28;20048;-93